createdAt,value
2022-08-16T00:02:20.784Z,20.90
2022-08-16T00:06:23.305Z,20.82
2022-08-16T00:10:28.628Z,20.76
2022-08-16T00:14:33.450Z,20.68
2022-08-16T00:18:35.746Z,20.61
2022-08-16T00:22:42.786Z,20.56
2022-08-16T00:26:45.481Z,20.45
2022-08-16T00:30:47.950Z,20.38
2022-08-16T00:34:52.956Z,20.31
2022-08-16T00:38:56.918Z,20.20
2022-08-16T00:43:00.366Z,20.13
2022-08-16T00:47:08.583Z,20.01
2022-08-16T00:51:12.319Z,19.93
2022-08-16T00:55:22.091Z,19.77
2022-08-16T00:59:27.390Z,19.64
2022-08-16T01:03:31.836Z,19.60
2022-08-16T01:07:50.445Z,19.56
2022-08-16T01:11:55.322Z,19.49
2022-08-16T01:16:03.025Z,19.42
2022-08-16T01:20:23.798Z,19.38
2022-08-16T01:24:55.454Z,19.36
2022-08-16T01:29:03.229Z,19.32
2022-08-16T01:33:15.068Z,19.29
2022-08-16T01:37:19.784Z,19.22
2022-08-16T01:41:29.600Z,19.15
2022-08-16T01:45:40.356Z,19.00
2022-08-16T01:50:43.608Z,18.83
2022-08-16T01:54:07.457Z,18.48
2022-08-16T01:58:16.523Z,18.25
2022-08-16T02:02:26.987Z,18.18
2022-08-16T02:06:34.610Z,18.20
2022-08-16T02:10:40.749Z,18.16
2022-08-16T02:14:43.734Z,17.96
2022-08-16T02:18:47.485Z,18.00
2022-08-16T02:22:50.931Z,18.12
2022-08-16T02:26:53.686Z,18.12
2022-08-16T02:31:02.286Z,18.08
2022-08-16T02:35:04.894Z,18.07
2022-08-16T02:39:14.877Z,17.92
2022-08-16T02:43:17.482Z,17.61
2022-08-16T02:47:25.414Z,17.46
2022-08-16T02:51:27.863Z,17.42
2022-08-16T02:55:41.242Z,17.49
2022-08-16T02:59:44.986Z,17.53
2022-08-16T03:04:39.449Z,17.57
2022-08-16T03:08:50.696Z,17.58
2022-08-16T03:12:36.704Z,17.56
2022-08-16T03:16:58.873Z,17.59
2022-08-16T03:21:02.872Z,17.61
2022-08-16T03:25:11.269Z,17.61
2022-08-16T03:29:15.675Z,17.63
2022-08-16T03:33:18.163Z,17.60
2022-08-16T03:37:29.233Z,17.59
2022-08-16T03:41:49.688Z,17.58
2022-08-16T03:45:55.251Z,17.62
2022-08-16T03:50:01.618Z,17.59
2022-08-16T03:54:12.174Z,17.60
2022-08-16T03:58:15.734Z,17.60
2022-08-16T04:02:22.182Z,17.57
2022-08-16T04:06:26.313Z,17.50
2022-08-16T04:10:36.880Z,17.53
2022-08-16T04:14:46.615Z,17.47
2022-08-16T04:18:50.709Z,17.51
2022-08-16T04:22:53.367Z,17.35
2022-08-16T04:26:56.263Z,17.18
2022-08-16T04:31:00.460Z,17.17
2022-08-16T04:35:09.340Z,17.28
2022-08-16T04:39:16.712Z,17.21
2022-08-16T04:43:19.413Z,17.14
2022-08-16T04:47:24.139Z,17.24
2022-08-16T04:51:28.075Z,17.16
2022-08-16T04:55:38.601Z,17.34
2022-08-16T04:59:42.064Z,19.05
2022-08-16T05:04:00.536Z,19.58
2022-08-16T05:08:28.855Z,19.43
2022-08-16T05:12:48.054Z,19.16
2022-08-16T05:16:52.139Z,19.89
2022-08-16T05:21:09.428Z,19.74
2022-08-16T05:25:16.934Z,19.59
2022-08-16T05:29:57.459Z,19.47
2022-08-16T05:33:53.480Z,19.60
2022-08-16T05:37:59.244Z,20.52
2022-08-16T05:42:02.097Z,24.48
2022-08-16T05:46:05.812Z,27.58
2022-08-16T05:50:33.937Z,28.69
2022-08-16T05:54:36.729Z,30.60
2022-08-16T05:58:38.953Z,31.82
2022-08-16T06:02:42.656Z,32.87
2022-08-16T06:07:24.690Z,33.87
2022-08-16T06:11:36.892Z,34.79
2022-08-16T06:15:41.464Z,35.64
2022-08-16T06:19:44.742Z,36.17
2022-08-16T06:23:54.061Z,36.66
2022-08-16T06:27:57.295Z,37.25
2022-08-16T06:32:02.793Z,37.67
2022-08-16T06:36:09.103Z,38.11
2022-08-16T06:40:15.708Z,38.24
2022-08-16T06:44:24.651Z,38.34
2022-08-16T06:48:34.017Z,38.90
2022-08-16T06:53:00.639Z,39.18
2022-08-16T06:57:01.264Z,39.50
2022-08-16T07:01:04.800Z,39.76
2022-08-16T07:05:15.835Z,39.53
2022-08-16T07:09:32.739Z,35.27
2022-08-16T07:14:00.624Z,31.72
2022-08-16T07:18:01.608Z,29.40
2022-08-16T07:22:07.628Z,28.12
2022-08-16T07:26:29.764Z,27.26
2022-08-16T07:30:45.177Z,26.74
2022-08-16T07:34:57.041Z,26.39
2022-08-16T07:39:01.419Z,26.34
2022-08-16T07:43:08.759Z,26.22
2022-08-16T07:47:11.886Z,26.10
2022-08-16T07:51:15.081Z,25.93
2022-08-16T07:55:18.611Z,25.81
2022-08-16T07:59:20.873Z,25.53
2022-08-16T08:03:23.647Z,25.52
2022-08-16T08:07:45.343Z,25.56
2022-08-16T08:11:59.557Z,25.61
2022-08-16T08:16:05.952Z,25.68
2022-08-16T08:20:11.972Z,25.77
2022-08-16T08:24:15.189Z,25.48
2022-08-16T08:32:58.624Z,25.66
2022-08-16T08:36:44.991Z,25.88
2022-08-16T08:40:57.582Z,26.07
2022-08-16T08:45:03.960Z,26.13
2022-08-16T08:49:08.816Z,26.15
2022-08-16T08:53:16.238Z,26.10
2022-08-16T08:57:20.307Z,26.16
2022-08-16T09:01:42.965Z,26.08
2022-08-16T09:06:00.783Z,26.15
2022-08-16T09:10:20.352Z,25.90
2022-08-16T09:14:24.926Z,25.82
2022-08-16T09:18:35.603Z,25.75
2022-08-16T09:22:41.636Z,25.85
2022-08-16T09:26:46.661Z,25.94
2022-08-16T09:30:50.064Z,26.06
2022-08-16T09:34:53.104Z,26.30
2022-08-16T09:39:02.105Z,26.54
2022-08-16T09:43:04.814Z,26.72
2022-08-16T09:47:10.425Z,26.79
2022-08-16T09:51:13.949Z,26.91
2022-08-16T09:55:16.122Z,27.21
2022-08-16T09:59:19.019Z,27.46
2022-08-16T10:03:22.226Z,27.76
2022-08-16T10:07:44.388Z,27.98
2022-08-16T10:12:11.416Z,27.95
2022-08-16T10:16:22.339Z,28.11
2022-08-16T10:20:25.643Z,28.30
2022-08-16T10:24:29.013Z,28.48
2022-08-16T10:28:32.558Z,28.66
2022-08-16T10:32:41.839Z,28.89
2022-08-16T10:36:43.944Z,29.15
2022-08-16T10:40:46.591Z,29.34
2022-08-16T10:44:53.980Z,29.60
2022-08-16T10:48:57.333Z,29.54
2022-08-16T10:53:00.587Z,29.41
2022-08-16T10:57:12.092Z,29.50
2022-08-16T11:01:43.085Z,29.64
2022-08-16T11:14:24.516Z,29.35
2022-08-16T11:19:02.792Z,29.30
2022-08-16T11:22:53.731Z,29.29
2022-08-16T11:31:18.114Z,29.07
2022-08-16T11:39:45.751Z,29.02
2022-08-16T11:43:48.454Z,29.13
2022-08-16T11:47:51.633Z,29.22
2022-08-16T11:51:54.506Z,29.28
2022-08-16T11:55:57.272Z,29.33
2022-08-16T12:00:02.681Z,29.28
2022-08-16T12:04:13.638Z,29.34
2022-08-16T12:08:16.213Z,29.41
2022-08-16T12:12:23.466Z,29.45
2022-08-16T12:16:31.188Z,29.47
2022-08-16T12:20:40.376Z,29.58
2022-08-16T12:24:42.714Z,29.57
2022-08-16T12:28:56.076Z,29.42
2022-08-16T12:33:03.068Z,29.49
2022-08-16T12:37:10.379Z,29.54
2022-08-16T12:41:14.590Z,29.54
2022-08-16T12:45:30.751Z,29.58
2022-08-16T12:49:32.883Z,29.77
2022-08-16T12:53:45.037Z,29.81
2022-08-16T12:57:58.135Z,29.84
2022-08-16T13:02:02.546Z,29.66
2022-08-16T13:06:08.702Z,29.74
2022-08-16T13:10:21.376Z,29.84
2022-08-16T13:14:41.286Z,29.91
2022-08-16T13:18:43.464Z,29.92
2022-08-16T13:23:09.880Z,29.95
2022-08-16T13:27:13.468Z,29.98
2022-08-16T13:31:16.916Z,30.00
2022-08-16T13:35:20.078Z,29.84
2022-08-16T13:39:22.223Z,29.83
2022-08-16T13:43:27.395Z,29.78
2022-08-16T13:47:30.313Z,29.85
2022-08-16T13:51:32.645Z,30.00
2022-08-16T13:55:34.758Z,30.08
2022-08-16T13:59:37.141Z,30.08
2022-08-16T14:03:40.970Z,30.17
2022-08-16T14:07:43.071Z,30.24
2022-08-16T14:11:49.466Z,30.21
2022-08-16T14:15:55.291Z,30.22
2022-08-16T14:19:59.987Z,30.21
2022-08-16T14:24:03.289Z,30.13
2022-08-16T14:28:15.028Z,30.01
2022-08-16T14:32:32.470Z,29.96
2022-08-16T14:36:37.006Z,29.80
2022-08-16T14:40:43.484Z,29.88
2022-08-16T14:44:49.491Z,29.99
2022-08-16T14:48:51.996Z,30.10
2022-08-16T14:53:00.991Z,30.19
2022-08-16T14:57:03.653Z,30.26
2022-08-16T15:01:09.749Z,30.32
2022-08-16T15:05:12.813Z,30.30
2022-08-16T15:09:16.943Z,30.27
2022-08-16T15:13:19.121Z,30.26
2022-08-16T15:17:23.246Z,30.29
2022-08-16T15:21:27.931Z,30.30
2022-08-16T15:25:41.876Z,30.13
2022-08-16T15:29:44.973Z,30.10
2022-08-16T15:33:56.417Z,30.08
2022-08-16T15:38:01.389Z,30.06
2022-08-16T15:42:27.473Z,30.09
2022-08-16T15:46:34.973Z,30.00
2022-08-16T15:50:57.662Z,29.96
2022-08-16T15:55:13.311Z,30.00
2022-08-16T15:59:27.349Z,29.98
2022-08-16T16:03:29.458Z,29.86
2022-08-16T16:07:38.640Z,29.83
2022-08-16T16:11:45.115Z,29.81
2022-08-16T16:15:50.095Z,29.83
2022-08-16T16:19:53.829Z,29.84
2022-08-16T16:23:57.752Z,29.79
2022-08-16T16:28:02.569Z,29.65
2022-08-16T16:32:07.699Z,29.50
2022-08-16T16:36:14.651Z,29.43
2022-08-16T16:40:23.880Z,29.43
2022-08-16T16:44:37.325Z,29.44
2022-08-16T16:48:39.886Z,29.41
2022-08-16T16:52:45.119Z,29.34
2022-08-16T16:56:50.012Z,29.29
2022-08-16T17:00:58.388Z,29.23
2022-08-16T17:05:03.387Z,29.15
2022-08-16T17:09:10.418Z,29.08
2022-08-16T17:13:13.278Z,29.01
2022-08-16T17:17:17.305Z,28.90
2022-08-16T17:21:20.673Z,28.80
2022-08-16T17:25:24.760Z,28.64
2022-08-16T17:29:30.955Z,28.50
2022-08-16T17:33:37.018Z,28.37
2022-08-16T17:37:56.087Z,28.22
2022-08-16T17:42:03.797Z,28.12
2022-08-16T17:46:07.318Z,28.02
2022-08-16T17:50:29.666Z,27.90
2022-08-16T17:54:32.763Z,27.77
2022-08-16T17:58:35.025Z,27.65
2022-08-16T18:02:44.065Z,27.54
2022-08-16T18:06:49.021Z,27.46
2022-08-16T18:10:51.684Z,27.34
2022-08-16T18:14:56.992Z,27.21
2022-08-16T18:19:02.411Z,27.03
2022-08-16T18:23:15.069Z,26.86
2022-08-16T18:27:26.118Z,26.69
2022-08-16T18:31:29.293Z,26.54
2022-08-16T18:35:31.599Z,26.42
2022-08-16T18:39:35.270Z,26.27
2022-08-16T18:44:23.200Z,26.16
2022-08-16T18:47:59.658Z,25.98
2022-08-16T18:52:03.103Z,25.85
2022-08-16T18:56:05.340Z,25.67
2022-08-16T19:00:11.361Z,25.47
2022-08-16T19:04:56.349Z,25.40
2022-08-16T19:08:36.082Z,25.33
2022-08-16T19:12:42.163Z,25.23
2022-08-16T19:16:44.668Z,25.10
2022-08-16T19:20:47.332Z,24.97
2022-08-16T19:24:49.446Z,24.86
2022-08-16T19:28:58.745Z,24.65
2022-08-16T19:33:01.953Z,24.32
2022-08-16T19:37:03.980Z,24.11
2022-08-16T19:41:06.207Z,23.99
2022-08-16T19:45:08.645Z,23.84
2022-08-16T19:49:15.863Z,23.67
2022-08-16T19:53:19.555Z,23.48
2022-08-16T19:57:22.639Z,23.41
2022-08-16T20:01:25.311Z,23.33
2022-08-16T20:05:31.257Z,23.28
2022-08-16T20:09:33.863Z,23.24
2022-08-16T20:13:38.542Z,23.08
2022-08-16T20:17:40.629Z,22.83
2022-08-16T20:21:42.747Z,22.63
2022-08-16T20:25:49.937Z,22.45
2022-08-16T20:29:52.349Z,22.14
2022-08-16T20:33:54.509Z,21.93
2022-08-16T20:37:56.728Z,21.96
2022-08-16T20:41:58.992Z,21.96
2022-08-16T20:46:01.024Z,21.83
2022-08-16T20:50:04.566Z,21.77
2022-08-16T20:54:06.610Z,21.73
2022-08-16T20:58:08.711Z,21.67
2022-08-16T21:02:13.458Z,21.47
2022-08-16T21:06:15.546Z,21.23
2022-08-16T21:10:21.211Z,21.07
2022-08-16T21:14:23.955Z,20.91
2022-08-16T21:18:26.685Z,20.77
2022-08-16T21:22:28.776Z,20.61
2022-08-16T21:26:31.319Z,20.52
2022-08-16T21:30:33.554Z,20.60
2022-08-16T21:34:35.703Z,20.46
2022-08-16T21:38:39.431Z,20.31
2022-08-16T21:42:42.946Z,20.36
2022-08-16T21:46:44.984Z,20.44
2022-08-16T21:50:47.037Z,20.38
2022-08-16T21:54:54.109Z,20.31
2022-08-16T21:58:58.575Z,20.18
2022-08-16T22:03:03.462Z,19.97
2022-08-16T22:07:06.345Z,19.85
2022-08-16T22:11:09.402Z,19.72
2022-08-16T22:15:13.176Z,19.60
2022-08-16T22:19:15.214Z,19.68
2022-08-16T22:23:21.876Z,19.63
2022-08-16T22:27:23.924Z,19.56
2022-08-16T22:31:26.101Z,19.42
2022-08-16T22:35:28.150Z,19.21
2022-08-16T22:39:30.235Z,19.08
2022-08-16T22:43:33.109Z,19.12
2022-08-16T22:47:35.587Z,19.22
2022-08-16T22:51:40.240Z,19.24
2022-08-16T22:55:42.907Z,19.22
2022-08-16T22:59:45.076Z,19.22
2022-08-16T23:03:47.114Z,19.23
2022-08-16T23:07:49.259Z,19.13
2022-08-16T23:11:51.551Z,19.03
2022-08-16T23:15:56.262Z,18.94
2022-08-16T23:19:58.421Z,18.86
2022-08-16T23:24:00.990Z,18.84
2022-08-16T23:28:04.851Z,18.81
2022-08-16T23:32:11.727Z,18.81
2022-08-16T23:36:13.831Z,18.81
2022-08-16T23:40:16.191Z,18.80
2022-08-16T23:44:56.700Z,18.64
2022-08-16T23:49:45.145Z,18.49
2022-08-16T23:53:09.944Z,18.46
2022-08-16T23:57:12.019Z,18.61
